Corey, Louisiana
Current Conditions -  °F | °C
As of 3:53 PM on Monday 26 Jan 2015 (Local Time) from KMLU Reporting Station
Clear Clear  
Wind Chill: 60°   Ceiling: Unl
Heat Index: 60°   Visibility: 10mi
Dew Point: 33°   Wind: 5mph
Humidity: 36%   Direction: 290°WNW
Pressure: 30.06"   Gusts: NA
Location:  32.5324°N, 92.1046°W
Report Text: KMLU 262153Z 29004KT 10SM CLR 16/01 A3006 RMK AO2 SLP178 T01560006
Loading
Personal Weather Stations






























Interactive Weather Map New forecast layout! Learn more

10-Day Weather Forecast

Advertisements
Track Severe Weather on mobile